Time;durP1;ratioP1;P1;durP2;ratioP2;P2;SDS_P1;SDS_P2;PMS_P1;PMS_P2;Temp;Humidity;BMP_temperature;BMP_pressure;BME280_temperature;BME280_humidity;BME280_pressure;Samples;Min_cycle;Max_cycle;Signal;HPM_P1;HPM_P2
2023/03/10 00:00:35;;;;;;;5.17;1.40;;;11.10;99.90;;;;;;4994412;28;20433;-71
2023/03/10 00:03:00;;;;;;;4.27;1.50;;;11.10;99.90;;;;;;4994949;28;20414;-70
2023/03/10 00:05:26;;;;;;;6.27;1.40;;;11.10;99.90;;;;;;4985850;28;20227;-72
2023/03/10 00:07:51;;;;;;;5.07;1.17;;;11.00;99.90;;;;;;4990012;28;20194;-72
2023/03/10 00:10:18;;;;;;;3.57;1.30;;;11.00;99.90;;;;;;4982806;28;20204;-70
2023/03/10 00:12:44;;;;;;;13.13;1.77;;;11.00;99.90;;;;;;4994600;28;20195;-71
2023/03/10 00:15:10;;;;;;;3.47;1.10;;;11.00;99.90;;;;;;4994817;28;20466;-71
2023/03/10 00:17:36;;;;;;;2.60;1.20;;;10.90;99.90;;;;;;4994522;28;20411;-71
2023/03/10 00:20:06;;;;;;;3.60;0.90;;;10.90;99.90;;;;;;4994276;28;20966;-71
2023/03/10 00:22:33;;;;;;;3.13;1.57;;;10.90;99.90;;;;;;4992777;28;20203;-71
2023/03/10 00:24:59;;;;;;;3.77;1.30;;;10.90;99.90;;;;;;4993373;28;20588;-71
2023/03/10 00:27:25;;;;;;;5.47;1.60;;;11.00;99.90;;;;;;4978610;28;20518;-72
2023/03/10 00:29:51;;;;;;;2.07;1.20;;;11.00;99.90;;;;;;4989465;28;20568;-72
2023/03/10 00:32:16;;;;;;;4.47;1.40;;;10.90;99.90;;;;;;4983275;28;20454;-71
2023/03/10 00:34:41;;;;;;;3.60;1.43;;;10.90;99.90;;;;;;4994348;28;20518;-71
2023/03/10 00:37:08;;;;;;;3.27;1.30;;;10.90;99.90;;;;;;4994434;28;20594;-71
2023/03/10 00:39:33;;;;;;;3.00;1.30;;;10.90;99.90;;;;;;4993963;28;20259;-71
2023/03/10 00:41:59;;;;;;;3.70;1.27;;;10.80;99.90;;;;;;4986518;28;20541;-71
2023/03/10 00:44:24;;;;;;;1.60;0.97;;;10.80;99.90;;;;;;4993570;28;20183;-72
2023/03/10 00:46:50;;;;;;;7.77;1.40;;;10.70;99.90;;;;;;4993371;28;20324;-71
2023/03/10 00:49:16;;;;;;;4.40;1.70;;;10.70;99.90;;;;;;4994099;28;20186;-71
2023/03/10 00:51:41;;;;;;;2.90;1.27;;;10.70;99.90;;;;;;4991868;28;20247;-71
2023/03/10 00:54:08;;;;;;;3.57;1.20;;;10.70;99.90;;;;;;4993578;28;20461;-72
2023/03/10 00:56:34;;;;;;;2.80;1.23;;;10.70;99.90;;;;;;4993212;28;20564;-72
2023/03/10 00:59:00;;;;;;;3.90;1.57;;;10.70;99.90;;;;;;4984821;28;20485;-72
2023/03/10 01:01:26;;;;;;;1.43;1.00;;;10.70;99.90;;;;;;4993001;28;20229;-72
2023/03/10 01:03:54;;;;;;;1.67;0.90;;;10.70;99.90;;;;;;4994029;28;20233;-71
2023/03/10 01:06:21;;;;;;;3.03;1.10;;;10.60;99.90;;;;;;4993646;28;20429;-71
2023/03/10 01:08:47;;;;;;;2.30;1.03;;;10.60;99.90;;;;;;4993928;28;20426;-71
2023/03/10 01:11:14;;;;;;;3.17;1.40;;;10.60;99.90;;;;;;4993547;28;20470;-72
2023/03/10 01:13:40;;;;;;;3.27;1.07;;;10.50;99.90;;;;;;4978271;28;20422;-72
2023/03/10 01:16:06;;;;;;;2.30;0.90;;;10.50;99.90;;;;;;4994126;28;20516;-71
2023/03/10 01:18:32;;;;;;;2.50;1.20;;;10.50;99.90;;;;;;4985571;28;20425;-72
2023/03/10 01:20:58;;;;;;;3.27;0.97;;;10.60;99.90;;;;;;4993329;28;20919;-71
2023/03/10 01:23:25;;;;;;;1.13;0.87;;;10.50;99.90;;;;;;4993395;28;20615;-71
2023/03/10 01:25:51;;;;;;;2.80;0.83;;;10.50;99.90;;;;;;4993599;28;20919;-70
2023/03/10 01:28:17;;;;;;;5.57;1.00;;;10.50;99.90;;;;;;4993421;28;20417;-71
2023/03/10 01:30:43;;;;;;;6.40;1.20;;;10.50;99.90;;;;;;4992794;28;20625;-72
2023/03/10 01:33:10;;;;;;;1.50;0.93;;;10.50;99.90;;;;;;4993438;28;20418;-70
2023/03/10 01:35:36;;;;;;;1.77;0.90;;;10.50;99.90;;;;;;4993008;28;20194;-72
2023/03/10 01:38:02;;;;;;;1.80;1.03;;;10.50;99.90;;;;;;4993543;28;20523;-72
2023/03/10 01:40:28;;;;;;;2.13;1.00;;;10.60;99.90;;;;;;4988412;28;20933;-70
2023/03/10 01:43:15;;;;;;;2.70;0.90;;;10.60;99.90;;;;;;4990244;28;20425;-72
2023/03/10 01:45:40;;;;;;;3.37;1.30;;;10.50;99.90;;;;;;4992791;28;20746;-72
2023/03/10 01:48:06;;;;;;;2.73;0.90;;;10.50;99.90;;;;;;4986782;28;20435;-72
2023/03/10 01:50:31;;;;;;;3.57;0.77;;;10.60;99.90;;;;;;4989788;28;20234;-72
2023/03/10 01:52:57;;;;;;;2.03;0.90;;;10.60;99.90;;;;;;4993018;28;20211;-70
2023/03/10 01:55:28;;;;;;;1.83;1.00;;;10.60;99.90;;;;;;4992722;28;20233;-71
2023/03/10 01:57:55;;;;;;;5.73;1.17;;;10.60;99.90;;;;;;4993138;28;20190;-71
2023/03/10 03:30:58;;;;;;;1.67;0.80;;;10.10;99.90;;;;;;5856009;22;20513;-70
2023/03/10 03:33:24;;;;;;;1.73;0.77;;;10.10;99.90;;;;;;5016601;28;20436;-72
2023/03/10 03:35:49;;;;;;;1.77;0.67;;;10.00;99.90;;;;;;5018795;28;20189;-72
2023/03/10 03:38:15;;;;;;;4.60;0.80;;;10.00;99.90;;;;;;5019556;28;20189;-72
2023/03/10 03:40:40;;;;;;;1.43;0.60;;;9.90;99.90;;;;;;5018646;28;20245;-72
2023/03/10 03:43:06;;;;;;;0.90;0.60;;;9.90;99.90;;;;;;5003608;28;20208;-70
2023/03/10 03:45:32;;;;;;;3.40;0.80;;;9.90;99.90;;;;;;5010206;28;20585;-72
2023/03/10 03:47:58;;;;;;;4.60;1.90;;;9.90;99.90;;;;;;5007323;28;20200;-72
2023/03/10 03:50:24;;;;;;;1.27;0.70;;;9.80;99.90;;;;;;5006693;28;20275;-71
2023/03/10 03:52:50;;;;;;;0.70;0.50;;;9.80;99.90;;;;;;4995246;28;20808;-72
2023/03/10 03:55:17;;;;;;;1.90;0.60;;;9.80;99.90;;;;;;5005279;28;20437;-72
2023/03/10 03:57:44;;;;;;;2.80;0.60;;;9.80;99.90;;;;;;5004358;28;20253;-73
2023/03/10 04:00:16;;;;;;;3.97;0.60;;;9.80;99.90;;;;;;5010214;28;20911;-72
2023/03/10 04:02:41;;;;;;;1.10;0.50;;;9.80;99.90;;;;;;5003229;28;20830;-73
2023/03/10 04:05:07;;;;;;;0.80;0.50;;;9.80;99.90;;;;;;5010306;28;20431;-72
2023/03/10 04:07:33;;;;;;;2.20;1.17;;;9.80;99.90;;;;;;5010332;28;20190;-72
2023/03/10 04:09:58;;;;;;;0.70;0.50;;;9.80;99.90;;;;;;5001696;28;20480;-73
2023/03/10 04:12:26;;;;;;;1.43;0.50;;;9.80;99.90;;;;;;5006986;28;20649;-72
2023/03/10 04:14:52;;;;;;;1.30;0.60;;;9.70;99.90;;;;;;4994984;28;20548;-72
2023/03/10 04:17:17;;;;;;;0.70;0.40;;;9.80;99.90;;;;;;5010475;28;20433;-73
2023/03/10 04:19:43;;;;;;;0.83;0.57;;;9.70;99.90;;;;;;5010156;28;20790;-72
2023/03/10 04:22:08;;;;;;;1.10;0.60;;;9.80;99.90;;;;;;5010161;28;20285;-73
2023/03/10 04:24:37;;;;;;;0.80;0.50;;;9.80;99.90;;;;;;5009923;28;20183;-73
2023/03/10 04:27:03;;;;;;;2.20;0.50;;;9.70;99.90;;;;;;5010295;28;20181;-72
2023/03/10 04:29:29;;;;;;;1.27;0.50;;;9.70;99.90;;;;;;5013696;28;20437;-70
2023/03/10 04:31:55;;;;;;;0.90;0.50;;;9.70;99.90;;;;;;5015445;28;20244;-70
2023/03/10 04:34:20;;;;;;;1.13;0.60;;;9.60;99.90;;;;;;5014148;28;20465;-70
2023/03/10 04:36:46;;;;;;;0.80;0.50;;;9.70;99.90;;;;;;5012731;28;20618;-69
2023/03/10 04:39:11;;;;;;;0.70;0.40;;;9.70;99.90;;;;;;5008467;28;20190;-70
2023/03/10 04:41:37;;;;;;;1.37;0.50;;;9.70;99.90;;;;;;5013143;28;20266;-70
2023/03/10 04:44:02;;;;;;;1.60;0.60;;;9.70;99.90;;;;;;5013722;28;20538;-69
2023/03/10 04:46:30;;;;;;;3.17;0.50;;;9.60;99.90;;;;;;5013312;28;20200;-68
2023/03/10 04:48:56;;;;;;;1.93;0.77;;;9.70;99.90;;;;;;5012352;28;20185;-70
2023/03/10 04:51:21;;;;;;;1.60;0.70;;;9.70;99.90;;;;;;5013419;28;20478;-70
2023/03/10 04:53:47;;;;;;;5.73;0.70;;;9.70;99.90;;;;;;5013092;28;20205;-70
2023/03/10 04:56:13;;;;;;;4.00;0.70;;;9.70;99.90;;;;;;5013571;28;20780;-72
2023/03/10 04:58:38;;;;;;;1.47;0.50;;;9.80;99.90;;;;;;5013355;28;20662;-71
2023/03/10 05:01:12;;;;;;;1.27;0.60;;;9.80;99.90;;;;;;5012885;28;20214;-72
2023/03/10 05:03:37;;;;;;;1.30;0.50;;;9.80;99.90;;;;;;5011931;28;20194;-73
2023/03/10 05:06:03;;;;;;;1.00;0.57;;;9.80;99.90;;;;;;5013208;28;21289;-72
2023/03/10 05:08:29;;;;;;;5.53;1.77;;;9.90;99.90;;;;;;5012991;28;20277;-72
2023/03/10 05:10:55;;;;;;;1.30;0.70;;;9.90;99.90;;;;;;5012785;28;20471;-72
2023/03/10 05:13:20;;;;;;;2.30;1.33;;;9.80;99.90;;;;;;5013313;28;20197;-72
2023/03/10 05:15:47;;;;;;;0.80;0.57;;;9.80;99.90;;;;;;5013003;28;20490;-72
2023/03/10 05:18:13;;;;;;;1.93;0.80;;;9.70;99.90;;;;;;5028406;28;20276;-72
2023/03/10 05:20:38;;;;;;;1.40;0.93;;;9.70;99.90;;;;;;5012500;28;20551;-72
2023/03/10 05:23:04;;;;;;;1.83;1.00;;;9.70;99.90;;;;;;5005005;28;20790;-72
2023/03/10 05:25:29;;;;;;;1.83;0.83;;;9.60;99.90;;;;;;5011447;28;20248;-70
2023/03/10 05:27:55;;;;;;;1.30;0.90;;;9.50;99.90;;;;;;4997147;28;20599;-72
2023/03/10 05:30:20;;;;;;;2.53;0.77;;;9.40;99.90;;;;;;5012640;28;20253;-71
2023/03/10 05:32:46;;;;;;;5.13;1.60;;;9.40;99.90;;;;;;5010741;28;20250;-72
2023/03/10 05:35:12;;;;;;;1.00;0.70;;;9.30;99.90;;;;;;5011416;28;20257;-72
2023/03/10 05:37:40;;;;;;;0.90;0.60;;;9.20;99.90;;;;;;5012513;28;20183;-72
2023/03/10 05:40:12;;;;;;;2.10;0.90;;;9.10;99.90;;;;;;5011978;28;20455;-71
2023/03/10 05:42:38;;;;;;;2.27;0.80;;;9.10;99.90;;;;;;5012243;28;20468;-72
2023/03/10 05:45:04;;;;;;;1.80;0.60;;;9.10;99.90;;;;;;5012405;28;20427;-72
2023/03/10 05:47:30;;;;;;;2.00;1.00;;;9.00;99.90;;;;;;5012307;28;20186;-71
2023/03/10 05:49:56;;;;;;;2.10;0.70;;;9.00;99.90;;;;;;4996254;28;20956;-70
2023/03/10 05:52:21;;;;;;;2.50;0.70;;;9.00;99.90;;;;;;5012417;28;20453;-72
2023/03/10 05:54:47;;;;;;;3.13;0.70;;;9.00;99.90;;;;;;5027153;28;20197;-71
2023/03/10 05:57:12;;;;;;;2.33;0.70;;;9.00;99.90;;;;;;5012283;28;20185;-72
2023/03/10 05:59:38;;;;;;;1.80;0.80;;;9.10;99.90;;;;;;5011821;28;20192;-72
2023/03/10 06:02:04;;;;;;;0.90;0.70;;;9.10;99.90;;;;;;5001653;28;20862;-72
2023/03/10 06:04:32;;;;;;;5.53;0.80;;;9.20;99.90;;;;;;5010620;28;20275;-72
2023/03/10 06:06:59;;;;;;;2.20;0.77;;;9.30;99.90;;;;;;4987322;28;20187;-72
2023/03/10 06:09:26;;;;;;;0.97;0.80;;;9.40;99.90;;;;;;5003358;28;20464;-71
2023/03/10 06:11:51;;;;;;;5.90;0.80;;;9.40;99.90;;;;;;4996601;28;20485;-72
2023/03/10 06:14:17;;;;;;;3.27;1.10;;;9.40;99.90;;;;;;4995745;28;20955;-72
2023/03/10 06:16:48;;;;;;;2.90;0.60;;;9.60;99.90;;;;;;4996505;28;20596;-72
2023/03/10 06:19:13;;;;;;;1.10;0.50;;;9.60;99.90;;;;;;5003200;28;20186;-72
2023/03/10 06:21:39;;;;;;;1.70;0.70;;;9.70;99.90;;;;;;5011256;28;20487;-71
2023/03/10 06:24:04;;;;;;;2.00;0.63;;;9.70;99.90;;;;;;5011837;28;20689;-72
2023/03/10 06:26:30;;;;;;;2.73;0.60;;;9.70;99.90;;;;;;5011784;28;20201;-72
2023/03/10 06:28:55;;;;;;;4.10;0.60;;;9.70;99.90;;;;;;5011543;28;20194;-72
2023/03/10 06:31:23;;;;;;;5.67;0.60;;;9.60;99.90;;;;;;5011132;28;20795;-72
2023/03/10 06:33:49;;;;;;;2.30;0.60;;;9.50;99.90;;;;;;5010166;28;20193;-72
2023/03/10 06:36:16;;;;;;;1.43;0.67;;;9.40;99.90;;;;;;5010812;28;20431;-73
2023/03/10 06:38:41;;;;;;;2.50;0.70;;;9.30;99.90;;;;;;5011160;28;20738;-72
2023/03/10 06:41:07;;;;;;;2.40;0.70;;;9.30;99.90;;;;;;5011239;28;20542;-73
2023/03/10 06:43:33;;;;;;;2.43;0.60;;;9.30;99.90;;;;;;5011396;28;20207;-72
2023/03/10 06:46:05;;;;;;;3.53;0.60;;;9.20;99.90;;;;;;5011427;28;20191;-72
2023/03/10 06:48:31;;;;;;;1.93;0.50;;;9.20;99.90;;;;;;5011596;28;20265;-72
2023/03/10 06:50:57;;;;;;;1.80;0.53;;;9.10;99.90;;;;;;5009974;28;20562;-71
2023/03/10 06:53:23;;;;;;;3.07;0.93;;;9.10;99.90;;;;;;5011058;28;20960;-70
2023/03/10 06:56:07;;;;;;;1.07;0.40;;;9.00;99.90;;;;;;5010937;28;20190;-72
2023/03/10 06:58:35;;;;;;;0.87;0.50;;;9.00;99.90;;;;;;5011296;28;20525;-72
2023/03/10 07:01:01;;;;;;;1.13;0.47;;;9.00;99.90;;;;;;4995149;28;21118;-71
2023/03/10 07:03:27;;;;;;;2.30;0.73;;;9.00;99.90;;;;;;5026365;28;20451;-72
2023/03/10 07:05:54;;;;;;;1.53;0.50;;;9.10;99.90;;;;;;5010798;28;20438;-71
2023/03/10 07:08:20;;;;;;;0.97;0.40;;;9.20;99.90;;;;;;5010976;28;20499;-72
2023/03/10 07:10:45;;;;;;;0.70;0.40;;;9.30;99.90;;;;;;5010345;28;20522;-72
2023/03/10 07:13:14;;;;;;;0.77;0.50;;;9.40;99.90;;;;;;5011087;28;20194;-71
2023/03/10 07:15:40;;;;;;;1.10;0.50;;;9.40;99.90;;;;;;5011214;28;20714;-72
2023/03/10 07:18:06;;;;;;;2.10;0.50;;;9.30;99.90;;;;;;5011020;28;20419;-72
2023/03/10 07:20:31;;;;;;;0.80;0.50;;;9.30;99.90;;;;;;5010813;28;20432;-72
2023/03/10 07:22:57;;;;;;;0.70;0.40;;;9.30;99.90;;;;;;5010715;28;20197;-71
2023/03/10 07:25:23;;;;;;;0.70;0.43;;;9.40;99.90;;;;;;5010861;28;20572;-71
2023/03/10 07:27:49;;;;;;;2.83;0.50;;;9.50;99.90;;;;;;5010809;28;20236;-72
2023/03/10 07:30:14;;;;;;;1.17;0.50;;;9.60;99.90;;;;;;5010410;28;20502;-72
2023/03/10 07:32:40;;;;;;;0.70;0.50;;;9.80;99.90;;;;;;5010032;28;20220;-72
2023/03/10 07:35:06;;;;;;;0.90;0.60;;;10.10;99.90;;;;;;5010770;28;20914;-71
2023/03/10 07:37:32;;;;;;;6.93;0.60;;;10.40;99.90;;;;;;5009681;28;20185;-72
2023/03/10 07:39:58;;;;;;;1.43;0.50;;;10.50;99.90;;;;;;5009960;28;20798;-70
2023/03/10 07:42:24;;;;;;;0.70;0.50;;;10.50;99.90;;;;;;5010866;28;20211;-71
2023/03/10 07:44:49;;;;;;;1.53;0.60;;;10.40;99.90;;;;;;5010485;28;20531;-71
2023/03/10 07:47:15;;;;;;;1.20;0.40;;;10.40;99.90;;;;;;5010969;28;20218;-72
2023/03/10 07:49:45;;;;;;;3.97;0.50;;;10.30;99.90;;;;;;5010281;28;20199;-71
2023/03/10 07:52:12;;;;;;;2.87;0.60;;;10.30;99.90;;;;;;5010502;28;20206;-72
2023/03/10 07:54:37;;;;;;;1.00;0.50;;;10.20;99.90;;;;;;5010752;28;20435;-69
2023/03/10 07:57:03;;;;;;;1.40;0.53;;;10.30;99.90;;;;;;5010587;28;20434;-71
2023/03/10 07:59:28;;;;;;;1.27;0.60;;;10.20;99.90;;;;;;5010845;28;20191;-72
2023/03/10 08:01:54;;;;;;;0.90;0.50;;;10.20;99.90;;;;;;5011186;28;20221;-72
2023/03/10 08:04:19;;;;;;;1.40;0.70;;;10.10;99.90;;;;;;5014315;28;20201;-72
2023/03/10 08:06:46;;;;;;;4.10;0.60;;;10.00;99.90;;;;;;5009486;28;20204;-72
2023/03/10 08:09:11;;;;;;;4.27;0.83;;;9.80;99.90;;;;;;5014502;28;20225;-72
2023/03/10 08:11:37;;;;;;;4.80;0.60;;;9.60;99.90;;;;;;5013921;28;20924;-73
2023/03/10 08:14:03;;;;;;;0.70;0.40;;;9.50;99.90;;;;;;5013759;28;20192;-72
2023/03/10 08:16:28;;;;;;;3.27;1.10;;;9.30;99.90;;;;;;5014369;28;20216;-72
2023/03/10 08:18:54;;;;;;;2.83;0.50;;;9.20;99.90;;;;;;5013819;28;20437;-73
2023/03/10 08:21:19;;;;;;;1.33;0.50;;;9.10;99.90;;;;;;5014198;28;20205;-72
2023/03/10 08:23:45;;;;;;;1.10;0.60;;;9.00;99.90;;;;;;5013732;28;20282;-72
2023/03/10 08:26:13;;;;;;;2.27;0.50;;;8.90;99.90;;;;;;5013996;28;20248;-72
2023/03/10 08:28:39;;;;;;;2.30;0.50;;;8.90;99.90;;;;;;5014028;28;20189;-71
2023/03/10 08:31:08;;;;;;;1.63;0.50;;;9.00;99.90;;;;;;5013203;28;20570;-73
2023/03/10 08:33:34;;;;;;;0.73;0.50;;;9.10;99.90;;;;;;5013891;28;20433;-73
2023/03/10 08:36:02;;;;;;;0.97;0.50;;;9.10;99.90;;;;;;5013614;28;20436;-73
2023/03/10 08:38:28;;;;;;;1.10;0.40;;;9.20;99.90;;;;;;5014819;28;20379;-73
2023/03/10 08:40:53;;;;;;;1.33;0.40;;;9.30;99.90;;;;;;5014083;28;20455;-73
2023/03/10 08:43:19;;;;;;;2.60;0.60;;;9.30;99.90;;;;;;5013568;28;20279;-72
2023/03/10 08:45:44;;;;;;;4.60;0.50;;;9.40;99.90;;;;;;5013186;28;20201;-72
2023/03/10 08:48:10;;;;;;;0.97;0.50;;;9.90;99.90;;;;;;5000210;28;20194;-72
2023/03/10 08:50:35;;;;;;;0.90;0.60;;;10.20;99.90;;;;;;5008737;28;20684;-72
2023/03/10 08:53:02;;;;;;;1.10;0.50;;;10.10;99.90;;;;;;5005950;28;20700;-73
2023/03/10 08:55:28;;;;;;;2.97;0.50;;;9.90;99.90;;;;;;5012153;28;20281;-72
2023/03/10 08:57:53;;;;;;;2.17;0.60;;;9.80;99.90;;;;;;5013282;28;21005;-73
2023/03/10 09:00:19;;;;;;;2.00;0.53;;;10.00;99.90;;;;;;5012944;28;20193;-73
2023/03/10 09:02:45;;;;;;;0.80;0.40;;;10.80;99.90;;;;;;5011645;28;20225;-72
2023/03/10 09:05:10;;;;;;;0.80;0.40;;;11.90;99.90;;;;;;5013246;28;20476;-72
2023/03/10 09:07:36;;;;;;;0.80;0.50;;;12.50;99.90;;;;;;5013112;28;20608;-73
2023/03/10 09:10:03;;;;;;;1.03;0.50;;;13.40;99.90;;;;;;5012445;28;20253;-72
2023/03/10 09:12:28;;;;;;;2.17;0.47;;;14.00;99.90;;;;;;5012974;28;20293;-73
2023/03/10 09:14:54;;;;;;;1.10;0.50;;;14.40;99.90;;;;;;5012067;28;20509;-72
2023/03/10 09:17:19;;;;;;;0.80;0.50;;;14.80;99.90;;;;;;5013047;28;20190;-72
2023/03/10 09:19:45;;;;;;;1.87;0.57;;;15.10;99.90;;;;;;5013460;28;20273;-72
2023/03/10 09:22:10;;;;;;;1.10;0.63;;;15.00;99.90;;;;;;5012892;28;20226;-73
2023/03/10 09:24:35;;;;;;;1.00;0.50;;;14.60;99.90;;;;;;5006690;28;20223;-72
2023/03/10 09:27:01;;;;;;;1.03;0.50;;;14.30;99.90;;;;;;5012528;28;20195;-72
2023/03/10 09:29:26;;;;;;;1.77;0.50;;;13.90;99.90;;;;;;5012798;28;20191;-72
2023/03/10 09:31:52;;;;;;;0.70;0.40;;;13.50;99.90;;;;;;5012252;28;20226;-72
2023/03/10 09:34:17;;;;;;;0.90;0.50;;;13.10;99.90;;;;;;5012784;28;20186;-72
2023/03/10 09:36:43;;;;;;;3.17;1.03;;;12.70;99.90;;;;;;5012683;28;20183;-72
2023/03/10 09:39:08;;;;;;;1.90;0.60;;;12.70;99.90;;;;;;5012686;28;20190;-71
2023/03/10 09:42:03;;;;;;;1.27;0.57;;;12.60;99.90;;;;;;5012014;28;20214;-73
2023/03/10 09:44:42;;;;;;;2.70;0.57;;;12.60;99.90;;;;;;5001943;28;20194;-72
2023/03/10 09:47:10;;;;;;;1.30;0.50;;;12.30;99.90;;;;;;5012313;28;20424;-72
2023/03/10 09:49:51;;;;;;;1.23;0.50;;;12.20;99.90;;;;;;5012227;28;20465;-72
2023/03/10 09:52:27;;;;;;;1.83;0.60;;;12.00;99.90;;;;;;4998178;28;20449;-70
2023/03/10 09:55:20;;;;;;;1.53;0.60;;;11.80;99.90;;;;;;5012148;28;20516;-73
2023/03/10 09:57:53;;;;;;;2.30;0.63;;;11.70;99.90;;;;;;5012114;28;20433;-71
2023/03/10 10:00:43;;;;;;;1.33;0.50;;;11.60;99.90;;;;;;4998422;28;20428;-72
2023/03/10 10:03:21;;;;;;;5.60;0.70;;;11.70;99.90;;;;;;5011871;28;20915;-72
2023/03/10 10:05:49;;;;;;;6.23;0.70;;;11.70;99.90;;;;;;5011890;28;20437;-71
2023/03/10 10:08:25;;;;;;;1.10;0.73;;;11.80;99.90;;;;;;5012152;28;20429;-72
2023/03/10 10:11:00;;;;;;;6.37;0.70;;;11.80;99.90;;;;;;5011314;28;20471;-72
2023/03/10 10:13:29;;;;;;;2.43;0.60;;;11.50;99.90;;;;;;5011931;28;20435;-72
2023/03/10 10:16:19;;;;;;;1.87;0.60;;;11.50;99.90;;;;;;5010474;28;20436;-72
2023/03/10 10:18:56;;;;;;;2.40;1.03;;;11.50;99.90;;;;;;5012464;28;20433;-71
2023/03/10 10:21:31;;;;;;;2.50;0.73;;;11.40;99.90;;;;;;4998866;28;20532;-72
2023/03/10 10:23:58;;;;;;;2.57;0.77;;;11.20;99.90;;;;;;5011706;28;20874;-71
2023/03/10 10:26:26;;;;;;;4.70;0.70;;;11.00;99.90;;;;;;5011759;28;20469;-72
2023/03/10 10:28:58;;;;;;;1.47;1.00;;;10.80;99.90;;;;;;5011566;28;20457;-71
2023/03/10 10:31:26;;;;;;;1.53;0.60;;;10.70;99.90;;;;;;5010953;28;20477;-72
2023/03/10 10:34:00;;;;;;;7.23;1.20;;;10.70;99.90;;;;;;5011109;28;20433;-71
2023/03/10 10:36:30;;;;;;;4.33;0.60;;;10.70;99.90;;;;;;5011454;28;20429;-73
2023/03/10 10:38:56;;;;;;;7.10;1.23;;;10.70;99.90;;;;;;5011373;28;21012;-73
2023/03/10 10:41:28;;;;;;;3.27;0.70;;;10.80;99.90;;;;;;5010993;28;20997;-72
2023/03/10 10:43:57;;;;;;;3.37;0.70;;;10.80;99.90;;;;;;5009790;28;20442;-73
2023/03/10 10:46:26;;;;;;;2.60;0.60;;;10.90;99.90;;;;;;5011308;28;20433;-71
2023/03/10 10:49:18;;;;;;;1.57;0.70;;;11.00;99.90;;;;;;5011115;28;20844;-71
2023/03/10 10:51:56;;;;;;;3.90;0.60;;;11.00;99.90;;;;;;5010912;28;20561;-73
2023/03/10 10:54:27;;;;;;;1.47;0.63;;;11.00;99.90;;;;;;4997565;28;20414;-73
2023/03/10 10:56:58;;;;;;;3.43;0.80;;;11.10;99.90;;;;;;5011001;28;20845;-72
2023/03/10 10:59:30;;;;;;;1.63;0.60;;;11.10;99.90;;;;;;5011171;28;20441;-71
2023/03/10 11:02:01;;;;;;;3.53;0.90;;;11.00;99.90;;;;;;5010449;28;20461;-72
2023/03/10 11:04:39;;;;;;;1.80;0.60;;;11.00;99.90;;;;;;5011157;28;20466;-72
2023/03/10 11:07:25;;;;;;;2.37;0.90;;;11.00;99.90;;;;;;5010786;28;20516;-71
2023/03/10 11:09:51;;;;;;;3.93;0.80;;;11.00;99.90;;;;;;5010771;28;20441;-71
2023/03/10 11:12:32;;;;;;;2.10;0.80;;;11.10;99.90;;;;;;5010694;28;20476;-71
2023/03/10 11:15:15;;;;;;;1.50;0.50;;;11.20;99.90;;;;;;5010803;28;20265;-71
2023/03/10 11:17:54;;;;;;;4.23;0.80;;;11.10;99.90;;;;;;5011020;28;20433;-73
2023/03/10 11:20:41;;;;;;;2.97;0.80;;;11.10;99.90;;;;;;4996193;28;20425;-72
2023/03/10 11:23:20;;;;;;;3.17;0.60;;;11.20;99.90;;;;;;5010578;28;20434;-72
2023/03/10 11:25:59;;;;;;;2.37;0.77;;;11.30;99.90;;;;;;5010862;28;20926;-73
2023/03/10 11:28:43;;;;;;;2.97;0.60;;;11.30;99.90;;;;;;4997584;28;20457;-72
2023/03/10 11:31:14;;;;;;;2.30;0.67;;;11.30;99.90;;;;;;5009978;28;20483;-71
2023/03/10 11:34:10;;;;;;;2.93;0.50;;;11.40;99.90;;;;;;5010620;28;20426;-72
2023/03/10 11:36:48;;;;;;;1.17;0.60;;;11.30;99.90;;;;;;5002498;28;20429;-73
2023/03/10 11:39:33;;;;;;;2.30;0.60;;;11.40;99.90;;;;;;5016887;28;20826;-72
2023/03/10 11:42:29;;;;;;;1.43;0.60;;;11.50;99.90;;;;;;5014014;28;20442;-72
2023/03/10 11:45:18;;;;;;;4.40;1.27;;;11.60;99.90;;;;;;5016968;28;20440;-72
2023/03/10 11:48:04;;;;;;;4.27;0.80;;;11.70;99.90;;;;;;5017148;28;20472;-72
2023/03/10 11:50:34;;;;;;;4.00;0.60;;;11.70;99.90;;;;;;5004229;28;21122;-73
2023/03/10 11:53:12;;;;;;;3.40;0.50;;;11.60;99.90;;;;;;5017114;28;21000;-72
2023/03/10 11:55:40;;;;;;;6.60;2.17;;;11.50;99.90;;;;;;5017178;28;20861;-72
2023/03/10 11:58:20;;;;;;;1.63;0.70;;;11.50;99.90;;;;;;5015614;28;20438;-72
2023/03/10 12:00:46;;;;;;;2.43;0.60;;;11.40;99.90;;;;;;5016543;28;20452;-72
2023/03/10 12:03:19;;;;;;;2.90;0.70;;;11.30;99.90;;;;;;5016885;28;20437;-72
2023/03/10 12:05:53;;;;;;;2.90;0.97;;;11.20;99.90;;;;;;5017102;28;20825;-72
2023/03/10 12:08:22;;;;;;;3.00;0.70;;;11.20;99.90;;;;;;5001421;28;20508;-71
2023/03/10 12:10:48;;;;;;;2.40;0.60;;;11.10;99.90;;;;;;5016462;28;20471;-71
2023/03/10 12:13:23;;;;;;;1.47;0.50;;;11.20;99.90;;;;;;5016535;28;20453;-73
2023/03/10 12:15:50;;;;;;;1.37;0.70;;;11.30;99.90;;;;;;5016974;28;20421;-73
2023/03/10 12:18:16;;;;;;;1.13;0.60;;;11.30;99.90;;;;;;5016479;28;20418;-72
2023/03/10 12:20:42;;;;;;;1.90;0.60;;;11.60;99.90;;;;;;5016447;28;20460;-73
2023/03/10 12:23:10;;;;;;;2.97;0.60;;;12.00;99.90;;;;;;5016539;28;20194;-72
2023/03/10 12:25:38;;;;;;;2.70;0.50;;;12.20;99.90;;;;;;5016743;28;20193;-72
2023/03/10 12:28:16;;;;;;;1.30;0.50;;;12.50;99.90;;;;;;5015230;28;20454;-72
2023/03/10 12:30:46;;;;;;;2.03;0.60;;;12.80;99.90;;;;;;5015979;28;21123;-72
2023/03/10 12:33:36;;;;;;;1.57;0.60;;;12.80;99.90;;;;;;5016484;28;20463;-72
2023/03/10 12:36:14;;;;;;;1.00;0.60;;;12.80;99.90;;;;;;5016684;28;21009;-72
2023/03/10 12:38:48;;;;;;;0.80;0.47;;;12.60;99.90;;;;;;5016886;28;20863;-72
2023/03/10 12:41:40;;;;;;;0.90;0.50;;;12.40;99.90;;;;;;5015986;28;20532;-72
2023/03/10 12:44:33;;;;;;;0.97;0.43;;;12.20;99.90;;;;;;5009234;28;20926;-72
2023/03/10 12:47:08;;;;;;;1.00;0.40;;;12.20;99.90;;;;;;5009004;28;20433;-71
2023/03/10 12:49:39;;;;;;;0.70;0.47;;;12.00;99.90;;;;;;5012803;28;20475;-72
2023/03/10 12:52:34;;;;;;;1.40;0.40;;;11.90;99.90;;;;;;5013550;28;20465;-72
2023/03/10 12:55:23;;;;;;;1.40;0.50;;;12.00;99.90;;;;;;5013896;28;20421;-71
2023/03/10 12:57:51;;;;;;;0.60;0.40;;;12.10;99.90;;;;;;5012637;28;20997;-71
2023/03/10 13:00:22;;;;;;;0.93;0.50;;;12.20;99.90;;;;;;5013653;28;20425;-71
2023/03/10 13:03:15;;;;;;;1.33;0.40;;;12.00;99.90;;;;;;5014384;28;20425;-72
2023/03/10 13:05:55;;;;;;;1.27;0.50;;;11.80;99.90;;;;;;5000502;28;20438;-73
2023/03/10 13:08:35;;;;;;;1.37;0.40;;;11.70;99.90;;;;;;5013584;28;20492;-72
2023/03/10 13:11:02;;;;;;;1.00;0.57;;;11.60;99.90;;;;;;5012091;28;20527;-72
2023/03/10 13:13:35;;;;;;;0.70;0.40;;;11.50;99.90;;;;;;5006332;28;20524;-71
2023/03/10 13:16:17;;;;;;;0.80;0.40;;;11.40;99.90;;;;;;5012976;28;20852;-72
2023/03/10 13:18:50;;;;;;;1.00;0.60;;;11.30;99.90;;;;;;5013433;28;20949;-71
2023/03/10 13:21:28;;;;;;;0.70;0.40;;;11.20;99.90;;;;;;5012526;28;20457;-72
2023/03/10 13:23:55;;;;;;;0.70;0.50;;;11.10;99.90;;;;;;5013193;28;20422;-71
2023/03/10 13:26:21;;;;;;;0.67;0.40;;;11.00;99.90;;;;;;5012566;28;20425;-71
2023/03/10 13:28:57;;;;;;;0.80;0.40;;;10.90;99.90;;;;;;5013155;28;20998;-71
2023/03/10 13:31:30;;;;;;;1.07;0.40;;;10.90;99.90;;;;;;4996770;28;20549;-72
2023/03/10 13:34:09;;;;;;;0.80;0.40;;;10.90;99.90;;;;;;5013060;28;20429;-72
2023/03/10 13:36:37;;;;;;;1.00;0.60;;;10.80;99.90;;;;;;5000350;28;20858;-72
2023/03/10 13:39:12;;;;;;;2.03;0.50;;;10.70;99.90;;;;;;5012934;28;20934;-72
2023/03/10 13:41:40;;;;;;;0.80;0.40;;;10.60;99.90;;;;;;5010746;28;20457;-72
2023/03/10 13:44:23;;;;;;;1.27;0.50;;;10.30;99.90;;;;;;5010411;28;20535;-72
2023/03/10 13:47:00;;;;;;;1.80;0.40;;;10.00;99.90;;;;;;5010676;28;20458;-73
2023/03/10 13:49:29;;;;;;;3.57;0.53;;;9.80;99.90;;;;;;4995513;28;20428;-72
2023/03/10 13:52:03;;;;;;;0.90;0.43;;;9.70;99.90;;;;;;5010241;28;21175;-72
2023/03/10 13:54:34;;;;;;;3.27;0.40;;;9.80;99.90;;;;;;4996023;28;20521;-72
2023/03/10 13:57:20;;;;;;;0.83;0.33;;;9.90;99.90;;;;;;5012027;28;20487;-72
2023/03/10 13:59:47;;;;;;;1.10;0.40;;;9.90;99.90;;;;;;5011886;28;20837;-72
2023/03/10 14:02:27;;;;;;;0.60;0.40;;;10.00;99.90;;;;;;5011572;28;20476;-72
2023/03/10 14:04:54;;;;;;;2.50;0.40;;;10.10;99.90;;;;;;5012324;28;20429;-72
2023/03/10 14:07:25;;;;;;;0.60;0.30;;;10.20;99.90;;;;;;5011699;28;20432;-72
2023/03/10 14:10:02;;;;;;;0.90;0.60;;;10.20;99.90;;;;;;5011547;28;20448;-72
2023/03/10 14:12:37;;;;;;;1.57;0.43;;;10.30;99.90;;;;;;4996704;28;20546;-72
2023/03/10 14:15:20;;;;;;;1.53;0.30;;;10.40;99.90;;;;;;5011629;28;20439;-71
2023/03/10 14:18:12;;;;;;;0.70;0.40;;;10.40;99.90;;;;;;5012103;28;20439;-72
2023/03/10 14:20:45;;;;;;;0.70;0.50;;;10.30;99.90;;;;;;5013776;28;20444;-71
2023/03/10 14:23:17;;;;;;;1.73;0.40;;;10.20;99.90;;;;;;5011363;28;20523;-70
2023/03/10 14:25:42;;;;;;;0.70;0.40;;;10.20;99.90;;;;;;5004537;28;20434;-72
2023/03/10 14:28:14;;;;;;;0.70;0.43;;;10.10;99.90;;;;;;4997185;28;20486;-72
2023/03/10 14:30:42;;;;;;;1.27;0.40;;;10.00;99.90;;;;;;4996210;28;20211;-72
2023/03/10 14:33:14;;;;;;;0.70;0.40;;;9.80;99.90;;;;;;5002276;28;20444;-72